Time;durP1;ratioP1;P1;durP2;ratioP2;P2;SDS_P1;SDS_P2;PMS_P1;PMS_P2;Temp;Humidity;BMP_temperature;BMP_pressure;BME280_temperature;BME280_humidity;BME280_pressure;Samples;Min_cycle;Max_cycle;Signal;HPM_P1;HPM_P2
2022/12/14 00:00:45;;;;;;;3.70;2.90;;;;;;;-3.74;91.59;99905.63;5015053;28;20065;-71
2022/12/14 00:03:11;;;;;;;3.83;2.90;;;;;;;-3.75;92.70;99902.22;5014679;28;20123;-70
2022/12/14 00:05:36;;;;;;;3.40;3.10;;;;;;;-3.79;92.11;99884.25;5014613;28;20120;-72
2022/12/14 00:08:02;;;;;;;3.57;3.00;;;;;;;-3.63;92.00;99904.97;5014769;28;20506;-71
2022/12/14 00:10:28;;;;;;;3.53;3.15;;;;;;;-3.78;92.60;99886.75;4996722;28;20124;-71
2022/12/14 00:12:54;;;;;;;5.00;3.83;;;;;;;-3.71;92.25;99908.06;5013301;28;20116;-71
2022/12/14 00:15:19;;;;;;;5.73;3.53;;;;;;;-3.66;93.17;99899.97;5014302;28;20341;-71
2022/12/14 00:17:44;;;;;;;5.17;3.30;;;;;;;-3.57;92.53;99910.63;5014043;28;20485;-70
2022/12/14 00:20:14;;;;;;;3.43;2.97;;;;;;;-3.63;92.68;99904.97;5014411;28;20053;-71
2022/12/14 00:22:39;;;;;;;4.30;3.38;;;;;;;-3.58;92.79;99911.56;5014479;28;20037;-71
2022/12/14 00:25:06;;;;;;;4.10;3.70;;;;;;;-3.68;93.55;99900.06;5014421;28;20034;-71
2022/12/14 00:27:31;;;;;;;5.90;5.03;;;;;;;-3.64;92.92;99904.13;5014191;28;20112;-71
2022/12/14 00:29:57;;;;;;;4.40;3.23;;;;;;;-3.60;92.83;99913.44;5014762;28;20121;-69
2022/12/14 00:32:23;;;;;;;3.03;2.73;;;;;;;-3.62;93.22;99910.09;5016457;28;20042;-71
2022/12/14 00:34:48;;;;;;;4.43;2.87;;;;;;;-3.64;94.02;99913.72;4999938;28;20030;-74
2022/12/14 00:37:14;;;;;;;3.77;3.37;;;;;;;-3.65;94.40;99912.03;5017155;28;20059;-72
2022/12/14 00:39:39;;;;;;;3.90;3.10;;;;;;;-3.64;93.71;99918.91;5016875;28;20030;-72
2022/12/14 00:42:06;;;;;;;3.97;2.90;;;;;;;-3.70;93.92;99917.53;5015435;28;20030;-71
2022/12/14 00:44:32;;;;;;;2.67;2.47;;;;;;;-3.73;93.59;99909.06;5014416;28;20172;-72
2022/12/14 00:46:58;;;;;;;3.97;3.33;;;;;;;-3.72;94.24;99914.19;4996174;28;20507;-71
2022/12/14 00:49:23;;;;;;;4.03;3.37;;;;;;;-3.71;94.06;99921.06;5012651;28;20117;-73
2022/12/14 00:51:52;;;;;;;3.78;3.17;;;;;;;-3.78;94.51;99901.53;4996625;28;20033;-70
2022/12/14 00:54:17;;;;;;;5.40;3.37;;;;;;;-3.66;94.48;99921.63;5013877;28;20037;-73
2022/12/14 00:56:43;;;;;;;3.33;3.03;;;;;;;-3.65;94.09;99927.66;5012566;28;20030;-71
2022/12/14 00:59:08;;;;;;;3.50;2.97;;;;;;;-3.70;94.02;99925.34;5013699;28;20065;-72
2022/12/14 01:01:34;;;;;;;3.67;3.37;;;;;;;-3.68;94.23;99936.50;5013211;28;20484;-71
2022/12/14 01:04:18;;;;;;;3.20;2.87;;;;;;;-3.78;94.70;99919.75;4996104;28;20038;-72
2022/12/14 01:06:45;;;;;;;3.53;3.22;;;;;;;-3.70;94.72;99935.75;5013546;28;20025;-72
2022/12/14 01:09:11;;;;;;;3.17;2.95;;;;;;;-3.73;94.85;99937.69;5013188;28;20045;-71
2022/12/14 01:11:37;;;;;;;3.40;3.03;;;;;;;-3.76;94.50;99930.88;5012497;28;20030;-70
2022/12/14 01:14:03;;;;;;;3.73;3.00;;;;;;;-3.70;94.54;99934.91;5013899;28;20424;-74
2022/12/14 01:16:28;;;;;;;5.05;2.92;;;;;;;-3.68;95.20;99939.09;5013458;28;20018;-72
2022/12/14 01:18:58;;;;;;;7.70;4.80;;;;;;;-3.68;95.14;99933.06;5013681;28;20367;-71
2022/12/14 01:21:24;;;;;;;7.63;3.97;;;;;;;-3.73;95.13;99927.28;5013534;28;20038;-71
2022/12/14 01:23:52;;;;;;;3.93;3.30;;;;;;;-3.94;95.57;99912.03;5013769;28;20400;-73
2022/12/14 01:26:18;;;;;;;11.15;3.95;;;;;;;-3.81;95.11;99940.75;5013731;28;20279;-70
2022/12/14 01:28:57;;;;;;;4.83;3.37;;;;;;;-3.91;94.93;99911.00;5014355;28;20117;-70
2022/12/14 01:31:26;;;;;;;3.80;3.35;;;;;;;-3.83;94.95;99929.59;5015407;28;20307;-71
2022/12/14 01:33:55;;;;;;;3.47;3.17;;;;;;;-3.98;94.56;99910.53;5017088;28;20378;-70
2022/12/14 01:36:23;;;;;;;4.40;2.60;;;;;;;-3.89;94.55;99930.78;5025558;28;20029;-70
2022/12/14 01:38:53;;;;;;;6.25;3.55;;;;;;;-3.83;95.58;99919.19;5015594;28;20036;-74
2022/12/14 01:41:34;;;;;;;3.10;2.80;;;;;;;-4.07;95.27;99872.91;5013553;28;20038;-70
2022/12/14 01:44:03;;;;;;;3.95;3.55;;;;;;;-3.64;94.68;99939.75;5013540;28;20037;-73
2022/12/14 01:46:44;;;;;;;5.22;4.20;;;;;;;-3.60;94.80;99936.84;5015426;28;20424;-71
2022/12/14 01:49:12;;;;;;;5.60;3.85;;;;;;;-3.52;95.27;99924.19;4998965;28;20397;-73
2022/12/14 01:51:42;;;;;;;3.75;3.30;;;;;;;-3.52;94.65;99915.56;5014858;28;20041;-71
2022/12/14 01:54:12;;;;;;;3.40;3.10;;;;;;;-3.57;95.84;99915.84;5016844;28;20500;-73
2022/12/14 01:56:41;;;;;;;4.95;3.85;;;;;;;-3.60;96.13;99910.00;5014471;28;20116;-73
2022/12/14 01:59:14;;;;;;;3.10;2.80;;;;;;;-3.69;97.07;99906.19;5013281;28;20375;-72
2022/12/14 02:01:40;;;;;;;3.50;3.20;;;;;;;-3.66;98.31;99921.63;5012690;28;20099;-72
2022/12/14 02:04:06;;;;;;;3.00;2.70;;;;;;;-3.67;98.45;99932.97;5012364;28;20457;-71
2022/12/14 02:06:37;;;;;;;3.20;2.90;;;;;;;-3.52;98.66;99928.56;5012573;28;20265;-72
2022/12/14 02:09:08;;;;;;;3.08;2.83;;;;;;;-3.55;97.73;99927.00;5012664;28;20044;-71
2022/12/14 02:11:51;;;;;;;4.03;3.58;;;;;;;-3.52;98.79;99939.81;5012684;28;20026;-74
2022/12/14 02:14:16;;;;;;;4.95;3.03;;;;;;;-3.60;98.37;99926.44;5012814;28;20034;-71
2022/12/14 02:16:42;;;;;;;4.33;3.43;;;;;;;-3.54;98.48;99933.88;5012369;28;20025;-71
2022/12/14 02:19:09;;;;;;;4.40;2.97;;;;;;;-3.58;98.01;99940.19;5011888;28;20045;-72
2022/12/14 02:21:38;;;;;;;2.78;2.58;;;;;;;-3.58;98.56;99937.59;5012721;28;20087;-72
2022/12/14 02:24:37;;;;;;;6.35;3.70;;;;;;;-3.62;98.39;99938.72;5012782;28;20041;-72
2022/12/14 02:27:36;;;;;;;3.33;2.80;;;;;;;-3.64;98.69;99940.56;5012600;28;20034;-71
2022/12/14 02:30:18;;;;;;;4.75;3.55;;;;;;;-3.79;98.57;99925.88;5012538;28;20030;-71
2022/12/14 02:32:55;;;;;;;4.18;3.33;;;;;;;-3.64;99.21;99957.94;5012458;28;20113;-70
2022/12/14 02:35:52;;;;;;;4.00;3.55;;;;;;;-3.68;97.61;99959.91;5012301;28;20046;-72
2022/12/14 02:38:42;;;;;;;3.67;3.38;;;;;;;-3.84;95.30;99951.34;5012435;28;20030;-72
2022/12/14 02:41:43;;;;;;;2.72;2.50;;;;;;;-3.89;95.31;99943.81;5012273;28;20172;-70
2022/12/14 02:44:51;;;;;;;3.33;3.03;;;;;;;-3.87;95.12;99947.16;5012304;28;20074;-70
2022/12/14 02:47:36;;;;;;;3.50;3.20;;;;;;;-3.94;95.52;99937.22;5010436;28;20482;-69
2022/12/14 02:50:19;;;;;;;2.90;2.60;;;;;;;-3.89;95.56;99941.19;5012265;28;20054;-70
2022/12/14 02:52:53;;;;;;;2.90;2.70;;;;;;;-3.89;94.87;99941.19;5012552;28;20183;-72
2022/12/14 02:55:29;;;;;;;3.05;2.83;;;;;;;-3.91;94.76;99937.03;5012566;28;20109;-72
2022/12/14 02:58:13;;;;;;;3.78;3.38;;;;;;;-3.90;94.16;99947.34;5012154;28;20038;-71
2022/12/14 03:00:39;;;;;;;2.85;2.65;;;;;;;-4.03;94.34;99941.19;4994501;28;20119;-72
2022/12/14 03:03:06;;;;;;;4.38;3.47;;;;;;;-4.16;94.63;99942.81;5012268;28;20029;-72
2022/12/14 03:05:32;;;;;;;3.35;3.00;;;;;;;-4.35;94.83;99940.44;5011847;28;20124;-72
2022/12/14 03:08:02;;;;;;;3.10;2.80;;;;;;;-4.32;95.91;99947.25;5011928;28;20042;-71
2022/12/14 03:10:40;;;;;;;3.97;3.22;;;;;;;-4.39;96.26;99949.34;5011874;28;20037;-72
2022/12/14 03:13:23;;;;;;;4.13;3.72;;;;;;;-4.68;95.12;99925.84;5014157;28;20120;-72
2022/12/14 03:16:15;;;;;;;4.10;3.70;;;;;;;-4.64;94.42;99949.91;5015466;28;20489;-73
2022/12/14 03:19:07;;;;;;;3.97;3.58;;;;;;;-4.78;94.50;99942.88;5015438;28;20474;-71
2022/12/14 03:21:39;;;;;;;5.00;3.20;;;;;;;-4.94;94.32;99955.03;5015897;28;20358;-72
2022/12/14 03:24:08;;;;;;;3.80;3.50;;;;;;;-5.07;94.57;99941.06;5015816;28;20615;-71
2022/12/14 03:26:42;;;;;;;5.68;3.30;;;;;;;-5.07;94.13;99956.66;5015340;28;20022;-73
2022/12/14 03:29:13;;;;;;;6.35;4.00;;;;;;;-5.15;94.31;99969.22;5015152;28;20026;-71
2022/12/14 03:31:45;;;;;;;8.27;5.18;;;;;;;-5.30;93.59;99968.25;5015032;28;20496;-71
2022/12/14 03:34:14;;;;;;;5.53;5.03;;;;;;;-5.47;93.68;99971.75;5015402;28;20465;-69
2022/12/14 03:36:46;;;;;;;5.05;4.45;;;;;;;-5.66;94.98;99960.66;5015440;28;20030;-70
2022/12/14 03:39:18;;;;;;;9.80;5.32;;;;;;;-5.72;95.90;99948.84;5015209;28;20026;-71
2022/12/14 03:42:03;;;;;;;6.57;4.95;;;;;;;-5.64;95.19;99969.19;5014947;28;20037;-73
2022/12/14 03:44:44;;;;;;;4.57;4.20;;;;;;;-5.74;95.16;99974.03;5003144;28;20036;-71
2022/12/14 03:47:34;;;;;;;5.05;4.55;;;;;;;-5.76;95.23;99975.88;5021830;28;20033;-72
2022/12/14 03:50:18;;;;;;;4.18;3.78;;;;;;;-5.77;94.26;99974.19;5015257;28;20022;-72
2022/12/14 03:53:02;;;;;;;4.10;3.70;;;;;;;-6.07;92.65;99949.84;5015640;28;20068;-70
2022/12/14 03:55:43;;;;;;;4.43;3.75;;;;;;;-6.02;93.11;99974.63;5014921;28;20025;-72
2022/12/14 03:58:08;;;;;;;4.93;4.43;;;;;;;-6.09;92.46;99978.44;5014837;28;20057;-72
2022/12/14 04:00:49;;;;;;;4.40;4.00;;;;;;;-6.25;92.96;99961.97;5014376;28;20064;-71
2022/12/14 04:03:40;;;;;;;4.65;3.92;;;;;;;-6.19;92.84;99979.81;5014693;28;20046;-71
2022/12/14 04:06:38;;;;;;;5.03;3.97;;;;;;;-6.21;92.88;99970.44;4988001;28;20034;-72
2022/12/14 04:09:22;;;;;;;7.65;4.88;;;;;;;-6.17;93.20;99975.38;5014673;28;20059;-75
2022/12/14 04:18:55;;;;;;;6.50;4.78;;;;;;;-6.24;91.42;99981.78;5014756;28;20022;-68
2022/12/14 04:20:47;;;;;;;5.30;4.75;;;;;;;-6.30;92.41;99979.50;5014262;28;20049;-71
2022/12/14 04:26:06;;;;;;;5.72;3.67;;;;;;;-6.46;92.12;99973.38;5014324;28;20030;-70
2022/12/14 04:31:29;;;;;;;5.68;3.85;;;;;;;-6.57;92.69;99972.16;5014288;28;20034;-69
2022/12/14 04:33:58;;;;;;;11.32;4.10;;;;;;;-6.61;92.77;99975.81;5013995;28;20030;-69
2022/12/14 04:36:32;;;;;;;4.78;4.20;;;;;;;-6.76;92.73;99957.56;5014036;28;20057;-68
2022/12/14 04:39:14;;;;;;;3.72;3.40;;;;;;;-6.67;93.02;99973.50;5014086;28;20040;-70
2022/12/14 04:41:44;;;;;;;5.97;3.83;;;;;;;-6.67;93.07;99972.66;5015769;28;20121;-69
2022/12/14 04:44:18;;;;;;;5.28;3.70;;;;;;;-6.75;92.98;99970.44;5013792;28;20026;-70
2022/12/14 04:46:45;;;;;;;4.95;4.53;;;;;;;-6.71;93.24;99990.09;4996140;28;20046;-70
2022/12/14 04:49:28;;;;;;;4.75;3.75;;;;;;;-6.73;93.88;99981.56;5013999;28;20036;-69
2022/12/14 04:52:09;;;;;;;4.60;4.18;;;;;;;-6.73;93.57;99986.75;5013888;28;20124;-68
2022/12/14 04:55:11;;;;;;;4.63;4.18;;;;;;;-6.74;93.19;99989.41;5013875;28;20124;-69
2022/12/14 04:57:44;;;;;;;5.30;4.70;;;;;;;-6.82;93.15;99997.53;5013857;28;20065;-68
2022/12/14 05:00:10;;;;;;;6.07;4.15;;;;;;;-6.99;94.43;99987.97;5013638;28;20038;-67
2022/12/14 05:02:41;;;;;;;5.53;4.90;;;;;;;-6.95;95.19;99999.00;5013229;28;20076;-70
2022/12/14 05:05:16;;;;;;;4.90;4.40;;;;;;;-6.98;95.15;99993.97;5013553;28;20112;-72
2022/12/14 05:08:17;;;;;;;6.13;4.97;;;;;;;-6.96;95.38;99999.91;5013895;28;20065;-71
2022/12/14 05:10:46;;;;;;;4.97;4.43;;;;;;;-6.94;94.94;99992.94;4969788;28;20053;-73
2022/12/14 05:13:21;;;;;;;7.65;5.80;;;;;;;-6.91;95.56;99992.81;5014746;28;20026;-69
2022/12/14 05:15:54;;;;;;;6.70;4.18;;;;;;;-6.96;95.27;99995.59;5014328;28;20034;-69
2022/12/14 05:18:21;;;;;;;6.03;4.57;;;;;;;-7.03;95.63;99983.00;5013362;28;20030;-71
2022/12/14 05:20:48;;;;;;;8.35;4.35;;;;;;;-7.07;95.69;99987.50;5013407;28;20046;-70
2022/12/14 05:23:15;;;;;;;8.35;5.00;;;;;;;-7.05;96.40;100002.94;5018150;28;20033;-72
2022/12/14 05:25:41;;;;;;;6.60;5.70;;;;;;;-6.99;96.91;99997.47;5015921;28;20126;-72
2022/12/14 05:28:08;;;;;;;7.07;5.07;;;;;;;-6.84;96.72;99989.00;4980129;28;20120;-73
2022/12/14 05:30:37;;;;;;;6.25;4.30;;;;;;;-6.62;95.77;100002.63;5014362;28;20037;-75
2022/12/14 05:33:02;;;;;;;7.30;5.10;;;;;;;-6.63;95.37;99998.38;4996839;28;20367;-70
2022/12/14 05:35:28;;;;;;;4.30;3.90;;;;;;;-6.51;94.73;100001.28;5012075;28;20026;-72
2022/12/14 05:37:54;;;;;;;4.60;4.03;;;;;;;-6.49;93.87;100015.00;5013094;28;20602;-73
2022/12/14 05:40:19;;;;;;;6.97;5.23;;;;;;;-6.57;94.30;100011.03;5012551;28;20133;-70
2022/12/14 05:42:45;;;;;;;5.23;3.97;;;;;;;-6.42;94.41;100021.53;5012606;28;20037;-69
2022/12/14 05:45:11;;;;;;;6.50;4.20;;;;;;;-6.26;93.89;100017.31;5012762;28;20124;-71
2022/12/14 05:47:38;;;;;;;8.85;4.80;;;;;;;-6.14;93.58;100016.69;4995033;28;20048;-69
2022/12/14 05:50:04;;;;;;;6.05;4.47;;;;;;;-6.14;93.02;100013.28;5012311;28;20065;-71
2022/12/14 05:52:30;;;;;;;5.40;4.30;;;;;;;-6.15;92.73;100015.03;5012740;28;20523;-69
2022/12/14 05:54:55;;;;;;;7.27;5.17;;;;;;;-6.14;93.00;100021.03;5012809;28;20034;-73
2022/12/14 05:57:21;;;;;;;5.83;4.50;;;;;;;-6.12;92.67;100012.28;5012510;28;20041;-69
2022/12/14 05:59:46;;;;;;;4.63;4.10;;;;;;;-6.16;91.95;100002.97;5012472;28;20470;-70
2022/12/14 06:02:12;;;;;;;7.27;4.70;;;;;;;-6.07;92.65;100019.81;5012797;28;20026;-71
2022/12/14 06:04:37;;;;;;;5.27;4.73;;;;;;;-6.07;91.99;100012.91;5012579;28;20365;-72
2022/12/14 06:07:07;;;;;;;7.63;4.70;;;;;;;-6.06;92.34;100019.78;5012942;28;20025;-73
2022/12/14 06:09:33;;;;;;;5.90;4.50;;;;;;;-6.01;93.04;100022.97;5012845;28;20022;-72
2022/12/14 06:11:58;;;;;;;5.17;4.17;;;;;;;-5.95;92.98;100030.44;5012508;28;20067;-70
2022/12/14 06:14:24;;;;;;;7.70;4.80;;;;;;;-5.90;92.57;100024.19;5012700;28;20485;-70
2022/12/14 06:16:52;;;;;;;6.43;4.33;;;;;;;-5.86;92.52;100030.84;5013314;28;20037;-73
2022/12/14 06:19:21;;;;;;;7.20;5.55;;;;;;;-5.85;92.65;100038.56;5012644;28;20109;-72
2022/12/14 06:21:46;;;;;;;5.50;4.80;;;;;;;-5.82;92.06;100040.16;4995196;28;20623;-72
2022/12/14 06:24:12;;;;;;;6.20;3.87;;;;;;;-5.76;92.28;100037.28;5012812;28;20030;-70
2022/12/14 06:26:41;;;;;;;4.97;3.95;;;;;;;-5.74;91.78;100038.03;5014872;28;20046;-72
2022/12/14 06:29:12;;;;;;;6.55;5.10;;;;;;;-5.77;91.22;100036.44;5013306;28;20196;-71
2022/12/14 06:31:38;;;;;;;5.47;4.00;;;;;;;-5.75;91.84;100044.97;4994999;28;20029;-70
2022/12/14 06:34:04;;;;;;;6.23;4.93;;;;;;;-5.89;91.37;100037.03;5013172;28;20029;-71
2022/12/14 06:36:33;;;;;;;4.67;4.17;;;;;;;-5.86;92.20;100047.25;4996535;28;20056;-72
2022/12/14 06:39:01;;;;;;;9.00;6.38;;;;;;;-5.86;91.99;100056.78;5001088;28;20054;-72
2022/12/14 06:41:28;;;;;;;8.05;5.10;;;;;;;-5.85;92.78;100053.28;5016900;28;20132;-74
2022/12/14 06:43:54;;;;;;;7.30;5.60;;;;;;;-5.86;92.59;100036.88;4997862;28;20065;-72
2022/12/14 06:46:21;;;;;;;9.03;4.43;;;;;;;-5.82;91.66;100050.53;5012629;28;20056;-73
2022/12/14 06:48:52;;;;;;;7.05;4.18;;;;;;;-5.75;92.13;100054.53;4998653;28;20038;-72
2022/12/14 06:51:19;;;;;;;5.88;4.30;;;;;;;-5.74;91.85;100045.81;5016631;28;20030;-71
2022/12/14 06:53:48;;;;;;;7.68;4.55;;;;;;;-5.66;91.38;100054.03;4998562;28;20030;-73
2022/12/14 06:56:16;;;;;;;7.53;4.57;;;;;;;-5.67;91.38;100049.78;5016811;28;20041;-71
2022/12/14 06:58:42;;;;;;;6.57;3.15;;;;;;;-5.66;90.73;100049.69;5015924;28;20109;-70
2022/12/14 07:01:12;;;;;;;4.93;4.43;;;;;;;-5.65;90.29;100047.94;5016004;28;20026;-70
2022/12/14 07:03:38;;;;;;;6.28;4.50;;;;;;;-5.61;90.52;100057.25;5016665;28;20029;-71
2022/12/14 07:06:05;;;;;;;4.95;4.40;;;;;;;-5.65;89.56;100071.28;5015884;28;20029;-73
2022/12/14 07:08:33;;;;;;;5.80;4.55;;;;;;;-5.69;89.77;100067.16;5015809;28;20021;-71
2022/12/14 07:11:06;;;;;;;10.45;3.88;;;;;;;-5.70;89.07;100062.91;5015935;28;20033;-73
2022/12/14 07:13:32;;;;;;;5.72;4.00;;;;;;;-5.74;89.32;100063.97;5015824;28;20116;-73
2022/12/14 07:15:59;;;;;;;6.57;4.13;;;;;;;-5.68;89.36;100071.44;5015820;28;20154;-72
2022/12/14 07:18:25;;;;;;;5.45;4.03;;;;;;;-5.72;88.95;100062.97;5015695;28;20591;-70
2022/12/14 07:21:01;;;;;;;4.18;3.75;;;;;;;-5.68;89.15;100079.22;5015434;28;20482;-74
2022/12/14 07:23:37;;;;;;;5.93;4.07;;;;;;;-5.65;87.86;100072.13;5015455;28;20045;-72
2022/12/14 07:26:29;;;;;;;7.43;4.43;;;;;;;-5.63;88.59;100070.28;5015486;28;20139;-72
2022/12/14 07:28:57;;;;;;;4.75;4.25;;;;;;;-5.50;87.24;100070.50;5015437;28;20125;-72
2022/12/14 07:31:24;;;;;;;4.30;3.85;;;;;;;-5.47;87.34;100062.59;5015411;28;20100;-72
2022/12/14 07:33:58;;;;;;;3.90;3.50;;;;;;;-5.48;88.12;100062.66;5015294;28;20021;-68
2022/12/14 07:36:25;;;;;;;8.30;4.35;;;;;;;-5.45;87.32;100073.72;5015269;28;20029;-70
2022/12/14 07:38:52;;;;;;;9.68;3.92;;;;;;;-5.42;87.96;100068.38;5014930;28;20414;-72
2022/12/14 07:41:21;;;;;;;5.75;4.00;;;;;;;-5.33;88.15;100072.25;5014914;28;20072;-71
2022/12/14 07:43:50;;;;;;;6.60;4.10;;;;;;;-5.21;88.67;100075.94;5015091;28;20038;-72
2022/12/14 07:46:19;;;;;;;6.22;4.20;;;;;;;-5.09;88.22;100068.38;4998034;28;20150;-72
2022/12/14 07:48:46;;;;;;;6.93;4.03;;;;;;;-4.99;87.58;100076.50;5015447;28;20026;-73
2022/12/14 07:51:14;;;;;;;6.72;4.85;;;;;;;-4.92;87.49;100077.84;5015314;28;20033;-75
2022/12/14 07:53:40;;;;;;;6.75;3.95;;;;;;;-4.90;87.32;100065.66;4997558;28;20029;-72
2022/12/14 07:56:09;;;;;;;6.60;4.50;;;;;;;-4.96;86.43;100065.94;4997619;28;20040;-73
2022/12/14 07:58:36;;;;;;;6.28;4.10;;;;;;;-4.94;86.73;100069.31;5015560;28;20029;-71
2022/12/14 08:01:12;;;;;;;5.22;4.05;;;;;;;-4.98;86.31;100067.78;4997279;28;20033;-70
2022/12/14 08:03:43;;;;;;;7.22;4.18;;;;;;;-4.93;87.07;100068.38;5015305;28;20096;-69
2022/12/14 08:06:10;;;;;;;7.38;5.63;;;;;;;-4.80;86.84;100074.63;4996924;28;20374;-71
2022/12/14 08:08:36;;;;;;;4.88;3.40;;;;;;;-4.73;86.50;100062.97;4997421;28;20026;-71
2022/12/14 08:11:02;;;;;;;4.97;3.97;;;;;;;-4.61;86.33;100069.28;5015221;28;20092;-74
2022/12/14 08:13:28;;;;;;;8.25;5.53;;;;;;;-4.68;86.09;100054.91;5015616;28;20558;-74
2022/12/14 08:15:53;;;;;;;7.10;3.73;;;;;;;-4.62;85.32;100069.34;5015630;28;20105;-70
2022/12/14 08:18:19;;;;;;;6.93;4.43;;;;;;;-4.65;86.87;100070.34;5015482;28;20535;-72
2022/12/14 08:20:49;;;;;;;10.73;3.70;;;;;;;-4.69;87.05;100068.84;5014906;28;20065;-71
2022/12/14 08:23:15;;;;;;;5.18;4.07;;;;;;;-4.78;87.15;100059.78;5017213;28;20072;-69
2022/12/14 08:25:41;;;;;;;5.45;3.97;;;;;;;-4.87;86.55;100049.91;5022608;28;20030;-73
2022/12/14 08:28:07;;;;;;;5.03;3.13;;;;;;;-4.85;88.15;100078.38;5024627;28;20131;-72
2022/12/14 08:30:35;;;;;;;7.13;4.33;;;;;;;-4.79;87.28;100084.09;5015923;28;20030;-69
2022/12/14 08:33:02;;;;;;;5.93;4.50;;;;;;;-4.73;87.40;100070.75;5016708;28;20029;-72
2022/12/14 08:35:27;;;;;;;5.18;4.18;;;;;;;-4.60;87.23;100077.91;5017083;28;20029;-70
2022/12/14 08:37:53;;;;;;;4.50;3.17;;;;;;;-4.64;86.82;100078.97;5017951;28;20034;-71
2022/12/14 08:40:18;;;;;;;5.73;4.13;;;;;;;-4.73;86.81;100049.97;5016651;28;20022;-71
2022/12/14 08:42:44;;;;;;;10.70;3.60;;;;;;;-4.62;87.53;100059.81;5014886;28;20446;-73
2022/12/14 08:45:10;;;;;;;10.17;6.63;;;;;;;-4.48;87.28;100072.03;5014401;28;20084;-73
2022/12/14 08:47:35;;;;;;;5.47;3.93;;;;;;;-4.40;87.27;100075.03;5014808;28;20110;-71
2022/12/14 08:50:00;;;;;;;6.30;5.03;;;;;;;-4.49;87.38;100053.00;5014442;28;20037;-71
2022/12/14 08:52:26;;;;;;;7.97;3.43;;;;;;;-4.41;88.03;100066.41;5013808;28;20040;-73
2022/12/14 08:54:51;;;;;;;4.07;3.20;;;;;;;-4.38;87.39;100062.78;5014306;28;20061;-71
2022/12/14 08:57:17;;;;;;;4.70;3.57;;;;;;;-4.40;87.68;100069.84;5014681;28;20025;-71
2022/12/14 08:59:43;;;;;;;5.57;3.30;;;;;;;-4.38;87.70;100065.38;5014035;28;20025;-71
2022/12/14 09:02:09;;;;;;;9.60;4.18;;;;;;;-4.43;87.68;100059.59;5014001;28;20149;-70
2022/12/14 09:04:35;;;;;;;5.60;4.20;;;;;;;-4.65;88.39;100064.31;5014143;28;20049;-69
2022/12/14 09:07:01;;;;;;;6.83;3.97;;;;;;;-4.75;88.36;100067.41;5012733;28;20137;-69
2022/12/14 09:09:26;;;;;;;6.97;4.13;;;;;;;-4.86;89.22;100056.78;5013581;28;20026;-71
2022/12/14 09:11:52;;;;;;;5.10;4.10;;;;;;;-4.92;89.71;100044.09;5014969;28;20034;-71
2022/12/14 09:14:17;;;;;;;5.40;4.67;;;;;;;-4.85;89.90;100055.00;5014988;28;20462;-70
2022/12/14 09:16:42;;;;;;;6.77;4.23;;;;;;;-4.80;89.91;100056.44;5016836;28;20033;-71
2022/12/14 09:19:11;;;;;;;9.43;4.73;;;;;;;-4.88;89.48;100062.97;5018788;28;20046;-71
2022/12/14 09:21:38;;;;;;;6.45;4.55;;;;;;;-4.88;89.83;100057.78;5017757;28;20042;-71
2022/12/14 09:24:05;;;;;;;8.43;3.80;;;;;;;-4.88;89.79;100048.22;5017953;28;20496;-71
2022/12/14 09:26:30;;;;;;;9.60;4.10;;;;;;;-4.86;90.48;100045.53;5016729;28;20076;-73
2022/12/14 09:28:59;;;;;;;10.73;4.27;;;;;;;-4.82;90.18;100055.69;5016778;28;20041;-71
2022/12/14 09:31:26;;;;;;;5.63;4.70;;;;;;;-4.88;90.63;100047.38;5015114;28;20061;-71
2022/12/14 09:33:53;;;;;;;6.70;4.43;;;;;;;-4.91;90.54;100038.00;5015672;28;20025;-73
2022/12/14 09:36:24;;;;;;;7.60;4.80;;;;;;;-4.80;90.09;100055.59;5013873;28;20077;-72
2022/12/14 09:38:50;;;;;;;6.70;3.88;;;;;;;-4.81;90.21;100054.75;5013899;28;20025;-74
2022/12/14 09:41:33;;;;;;;7.93;4.85;;;;;;;-4.88;90.84;100048.22;5013233;28;20044;-73
2022/12/14 09:44:02;;;;;;;5.22;4.25;;;;;;;-4.86;90.96;100051.56;5013757;28;20442;-71
2022/12/14 09:46:53;;;;;;;5.10;4.07;;;;;;;-4.84;91.86;100043.69;5017761;28;20095;-74
2022/12/14 09:49:32;;;;;;;6.72;4.88;;;;;;;-4.76;91.35;100051.91;5014711;28;20061;-72
2022/12/14 09:52:00;;;;;;;;;;;;;;;-4.74;90.88;100050.91;5012908;28;20076;-73
2022/12/14 09:54:29;;;;;;;5.85;4.55;;;;;;;-4.74;90.73;100052.66;5013272;28;19909;-70
2022/12/14 09:56:59;;;;;;;5.30;3.63;;;;;;;-4.80;90.92;100048.63;5013332;28;20030;-74
2022/12/14 09:59:28;;;;;;;6.97;4.38;;;;;;;-4.93;91.60;100024.22;5019904;28;20030;-69
2022/12/14 10:02:33;;;;;;;7.22;4.63;;;;;;;-4.75;91.68;100046.63;5028024;28;20508;-73
2022/12/14 10:05:10;;;;;;;6.05;4.50;;;;;;;-4.70;91.06;100051.56;5015340;28;20033;-72
2022/12/14 10:07:46;;;;;;;5.55;4.38;;;;;;;-4.79;91.13;100046.88;5015295;28;20038;-71
2022/12/14 10:10:30;;;;;;;10.40;4.40;;;;;;;-4.77;91.50;100048.47;5013684;28;20473;-71
2022/12/14 10:13:21;;;;;;;6.72;4.50;;;;;;;-4.67;91.36;100054.84;5013934;28;20044;-71
2022/12/14 10:16:06;;;;;;;6.35;4.57;;;;;;;-4.78;91.62;100031.22;5013701;28;20444;-72
2022/12/14 10:19:05;;;;;;;7.18;4.85;;;;;;;-4.59;91.79;100053.59;5013077;28;20026;-74
2022/12/14 10:22:02;;;;;;;6.85;4.68;;;;;;;-4.56;91.90;100058.63;4974948;28;20077;-71
2022/12/14 10:24:37;;;;;;;8.40;4.93;;;;;;;-4.57;91.77;100064.75;4974520;28;20069;-71
2022/12/14 10:27:06;;;;;;;7.05;4.22;;;;;;;-4.52;91.83;100057.53;4974516;28;20392;-73
2022/12/14 10:29:46;;;;;;;7.18;5.05;;;;;;;-4.44;91.87;100052.75;4973491;28;20022;-74
2022/12/14 10:32:32;;;;;;;7.43;5.35;;;;;;;-4.40;91.78;100049.88;4974145;28;20034;-72
2022/12/14 10:35:00;;;;;;;5.32;4.82;;;;;;;-4.33;92.46;100047.81;4974877;28;20154;-75
2022/12/14 10:37:36;;;;;;;8.40;5.20;;;;;;;-4.29;91.96;100046.69;4974528;28;20034;-72
2022/12/14 10:40:07;;;;;;;8.15;4.60;;;;;;;-4.30;92.02;100049.38;4974730;28;20035;-71
2022/12/14 10:42:36;;;;;;;6.85;5.00;;;;;;;-4.28;92.02;100053.56;4975219;28;20422;-70
2022/12/14 10:45:07;;;;;;;5.03;4.22;;;;;;;-4.17;91.94;100061.59;4973394;28;20030;-70
2022/12/14 10:48:16;;;;;;;6.38;4.90;;;;;;;-4.13;91.89;100057.91;4973606;28;20116;-73
2022/12/14 10:50:48;;;;;;;7.90;4.78;;;;;;;-4.18;91.64;100054.72;4973303;28;20030;-71
2022/12/14 10:53:18;;;;;;;7.00;4.70;;;;;;;-4.16;91.68;100049.44;4972997;28;20081;-72
2022/12/14 10:55:47;;;;;;;7.65;4.65;;;;;;;-4.06;91.51;100046.22;4973951;28;20027;-75
2022/12/14 10:58:12;;;;;;;4.85;3.83;;;;;;;-4.00;91.02;100039.00;4974740;28;20033;-76
2022/12/14 11:00:38;;;;;;;4.77;4.20;;;;;;;-3.97;90.86;100059.63;4973448;28;20053;-75
2022/12/14 11:03:10;;;;;;;5.70;4.73;;;;;;;-4.06;91.02;100059.22;4973749;28;20027;-72
2022/12/14 11:05:40;;;;;;;7.32;5.53;;;;;;;-4.16;91.81;100059.84;4973898;28;20451;-70
2022/12/14 11:08:07;;;;;;;5.55;4.90;;;;;;;-4.32;92.52;100041.69;4956861;28;20032;-73
2022/12/14 11:10:40;;;;;;;5.45;4.78;;;;;;;-4.12;92.36;100058.72;4972050;28;20027;-71
2022/12/14 11:13:11;;;;;;;5.90;4.47;;;;;;;-4.10;91.67;100056.88;4973660;28;20034;-72
2022/12/14 11:15:42;;;;;;;4.82;4.20;;;;;;;-4.11;92.09;100050.84;4972547;28;20026;-74
2022/12/14 11:18:26;;;;;;;5.95;4.45;;;;;;;-4.06;91.49;100056.63;4972976;28;20043;-73
2022/12/14 11:20:56;;;;;;;5.38;4.60;;;;;;;-4.04;92.13;100060.91;5009024;28;20045;-72
2022/12/14 11:23:26;;;;;;;6.72;5.55;;;;;;;-4.12;91.91;100056.97;5016337;28;20038;-70
2022/12/14 11:26:19;;;;;;;5.57;5.07;;;;;;;-4.19;92.44;100058.25;5012900;28;20022;-74
2022/12/14 11:28:52;;;;;;;7.28;5.38;;;;;;;-4.24;92.93;100057.69;5011915;28;20390;-72
2022/12/14 11:31:42;;;;;;;22.80;5.72;;;;;;;-4.27;93.31;100065.66;5011962;28;20030;-71
2022/12/14 11:34:36;;;;;;;11.05;6.45;;;;;;;-4.23;93.76;100071.50;4996314;28;20030;-76
2022/12/14 11:37:14;;;;;;;6.88;6.18;;;;;;;-4.18;93.77;100070.31;5014698;28;20531;-70
2022/12/14 11:39:44;;;;;;;8.85;5.70;;;;;;;-4.16;93.77;100072.84;5015218;28;20560;-71
2022/12/14 11:42:17;;;;;;;7.60;5.63;;;;;;;-4.12;93.47;100075.16;5014965;28;20030;-73
2022/12/14 11:44:45;;;;;;;9.68;6.35;;;;;;;-4.01;93.09;100079.78;5014862;28;20022;-72
2022/12/14 11:47:15;;;;;;;6.70;5.68;;;;;;;-3.97;92.70;100083.03;5015019;28;20030;-75
2022/12/14 11:50:22;;;;;;;8.55;5.50;;;;;;;-3.86;93.68;100085.88;5015718;28;20093;-74
2022/12/14 11:52:48;;;;;;;6.00;5.35;;;;;;;-3.85;92.78;100074.53;5016258;28;20057;-71
2022/12/14 11:55:20;;;;;;;6.67;5.93;;;;;;;-3.88;92.49;100075.53;5015161;28;20466;-73
2022/12/14 11:57:51;;;;;;;6.60;5.80;;;;;;;-3.85;92.81;100082.34;5015789;28;20041;-73
2022/12/14 12:00:45;;;;;;;9.38;5.05;;;;;;;-3.72;93.80;100077.28;5016036;28;20038;-73
2022/12/14 12:03:23;;;;;;;11.50;6.45;;;;;;;-3.73;92.45;100070.41;5005462;28;20165;-73